sensor_id;sensor_type;location;lat;lon;timestamp;P1;durP1;ratioP1;P2;durP2;ratioP2
48727;SDS011;34527;45.618;5.130;2023-02-01T00:01:12;21.80;;;14.32;;
48727;SDS011;34527;45.618;5.130;2023-02-01T00:03:37;18.98;;;12.52;;
48727;SDS011;34527;45.618;5.130;2023-02-01T00:06:03;16.90;;;11.52;;
48727;SDS011;34527;45.618;5.130;2023-02-01T00:08:29;16.77;;;11.25;;
48727;SDS011;34527;45.618;5.130;2023-02-01T00:11:01;14.40;;;11.20;;
48727;SDS011;34527;45.618;5.130;2023-02-01T00:13:29;15.50;;;10.98;;
48727;SDS011;34527;45.618;5.130;2023-02-01T00:16:01;17.25;;;11.68;;
48727;SDS011;34527;45.618;5.130;2023-02-01T00:18:33;19.40;;;12.02;;
48727;SDS011;34527;45.618;5.130;2023-02-01T00:21:00;16.13;;;11.35;;
48727;SDS011;34527;45.618;5.130;2023-02-01T00:23:26;17.65;;;11.38;;
48727;SDS011;34527;45.618;5.130;2023-02-01T00:25:51;15.75;;;11.55;;
48727;SDS011;34527;45.618;5.130;2023-02-01T00:28:17;18.13;;;11.15;;
48727;SDS011;34527;45.618;5.130;2023-02-01T00:30:43;14.15;;;10.40;;
48727;SDS011;34527;45.618;5.130;2023-02-01T00:33:08;16.73;;;11.25;;
48727;SDS011;34527;45.618;5.130;2023-02-01T00:35:34;15.82;;;11.02;;
48727;SDS011;34527;45.618;5.130;2023-02-01T00:38:00;18.17;;;11.55;;
48727;SDS011;34527;45.618;5.130;2023-02-01T00:40:26;17.65;;;11.40;;
48727;SDS011;34527;45.618;5.130;2023-02-01T00:42:52;14.40;;;10.43;;
48727;SDS011;34527;45.618;5.130;2023-02-01T00:45:18;18.27;;;12.00;;
48727;SDS011;34527;45.618;5.130;2023-02-01T00:47:44;17.20;;;11.10;;
48727;SDS011;34527;45.618;5.130;2023-02-01T00:50:10;15.45;;;10.20;;
48727;SDS011;34527;45.618;5.130;2023-02-01T00:52:35;15.85;;;10.45;;
48727;SDS011;34527;45.618;5.130;2023-02-01T00:55:01;16.85;;;11.00;;
48727;SDS011;34527;45.618;5.130;2023-02-01T00:57:27;16.63;;;10.43;;
48727;SDS011;34527;45.618;5.130;2023-02-01T00:59:52;16.13;;;10.82;;
48727;SDS011;34527;45.618;5.130;2023-02-01T01:02:18;18.73;;;11.32;;
48727;SDS011;34527;45.618;5.130;2023-02-01T01:04:44;14.55;;;10.77;;
48727;SDS011;34527;45.618;5.130;2023-02-01T01:07:09;15.65;;;11.43;;
48727;SDS011;34527;45.618;5.130;2023-02-01T01:09:35;18.80;;;11.63;;
48727;SDS011;34527;45.618;5.130;2023-02-01T01:12:00;16.90;;;11.48;;
48727;SDS011;34527;45.618;5.130;2023-02-01T01:14:28;15.75;;;10.70;;
48727;SDS011;34527;45.618;5.130;2023-02-01T01:16:54;16.50;;;11.18;;
48727;SDS011;34527;45.618;5.130;2023-02-01T01:19:20;18.65;;;11.60;;
48727;SDS011;34527;45.618;5.130;2023-02-01T01:21:45;19.35;;;11.90;;
48727;SDS011;34527;45.618;5.130;2023-02-01T01:24:11;15.23;;;11.40;;
48727;SDS011;34527;45.618;5.130;2023-02-01T01:26:36;16.30;;;11.32;;
48727;SDS011;34527;45.618;5.130;2023-02-01T01:29:02;18.50;;;11.43;;
48727;SDS011;34527;45.618;5.130;2023-02-01T01:31:28;15.45;;;11.10;;
48727;SDS011;34527;45.618;5.130;2023-02-01T01:33:55;18.45;;;11.13;;
48727;SDS011;34527;45.618;5.130;2023-02-01T01:36:23;17.23;;;11.23;;
48727;SDS011;34527;45.618;5.130;2023-02-01T01:38:50;16.48;;;11.18;;
48727;SDS011;34527;45.618;5.130;2023-02-01T01:41:18;16.48;;;10.98;;
48727;SDS011;34527;45.618;5.130;2023-02-01T01:43:46;17.92;;;11.48;;
48727;SDS011;34527;45.618;5.130;2023-02-01T01:46:15;15.63;;;10.68;;
48727;SDS011;34527;45.618;5.130;2023-02-01T01:48:42;17.58;;;12.27;;
48727;SDS011;34527;45.618;5.130;2023-02-01T01:51:08;15.95;;;11.40;;
48727;SDS011;34527;45.618;5.130;2023-02-01T01:53:45;17.17;;;11.38;;
48727;SDS011;34527;45.618;5.130;2023-02-01T01:56:38;16.77;;;11.70;;
48727;SDS011;34527;45.618;5.130;2023-02-01T01:59:05;19.45;;;11.27;;
48727;SDS011;34527;45.618;5.130;2023-02-01T02:01:32;18.48;;;11.57;;
48727;SDS011;34527;45.618;5.130;2023-02-01T02:03:58;14.55;;;11.35;;
48727;SDS011;34527;45.618;5.130;2023-02-01T02:09:15;15.25;;;10.70;;
48727;SDS011;34527;45.618;5.130;2023-02-01T02:11:41;15.05;;;10.90;;
48727;SDS011;34527;45.618;5.130;2023-02-01T02:14:07;17.40;;;10.77;;
48727;SDS011;34527;45.618;5.130;2023-02-01T02:19:15;15.25;;;10.60;;
48727;SDS011;34527;45.618;5.130;2023-02-01T02:27:19;15.63;;;10.48;;
48727;SDS011;34527;45.618;5.130;2023-02-01T02:38:38;18.48;;;12.13;;
48727;SDS011;34527;45.618;5.130;2023-02-01T02:43:40;20.45;;;12.75;;
48727;SDS011;34527;45.618;5.130;2023-02-01T02:49:44;15.95;;;10.88;;
48727;SDS011;34527;45.618;5.130;2023-02-01T02:52:33;16.23;;;10.40;;
48727;SDS011;34527;45.618;5.130;2023-02-01T02:55:25;15.25;;;10.30;;
48727;SDS011;34527;45.618;5.130;2023-02-01T02:57:53;16.38;;;10.95;;
48727;SDS011;34527;45.618;5.130;2023-02-01T03:00:39;19.90;;;13.20;;
48727;SDS011;34527;45.618;5.130;2023-02-01T03:03:25;21.92;;;13.23;;
48727;SDS011;34527;45.618;5.130;2023-02-01T03:06:13;27.57;;;15.20;;
48727;SDS011;34527;45.618;5.130;2023-02-01T03:08:41;43.72;;;22.00;;
48727;SDS011;34527;45.618;5.130;2023-02-01T03:11:10;24.55;;;14.27;;
48727;SDS011;34527;45.618;5.130;2023-02-01T03:13:54;39.60;;;20.23;;
48727;SDS011;34527;45.618;5.130;2023-02-01T03:18:52;19.17;;;12.20;;
48727;SDS011;34527;45.618;5.130;2023-02-01T03:21:32;16.10;;;11.10;;
48727;SDS011;34527;45.618;5.130;2023-02-01T03:24:07;16.02;;;10.57;;
48727;SDS011;34527;45.618;5.130;2023-02-01T03:26:41;15.68;;;10.27;;
48727;SDS011;34527;45.618;5.130;2023-02-01T03:29:17;17.47;;;10.97;;
48727;SDS011;34527;45.618;5.130;2023-02-01T03:31:47;13.57;;;10.43;;
48727;SDS011;34527;45.618;5.130;2023-02-01T03:34:13;16.00;;;11.07;;
48727;SDS011;34527;45.618;5.130;2023-02-01T03:39:21;16.30;;;11.02;;
48727;SDS011;34527;45.618;5.130;2023-02-01T03:41:58;12.98;;;10.02;;
48727;SDS011;34527;45.618;5.130;2023-02-01T03:44:32;19.13;;;11.80;;
48727;SDS011;34527;45.618;5.130;2023-02-01T03:49:55;16.23;;;10.43;;
48727;SDS011;34527;45.618;5.130;2023-02-01T03:52:31;13.85;;;10.32;;
48727;SDS011;34527;45.618;5.130;2023-02-01T03:55:05;16.23;;;10.68;;
48727;SDS011;34527;45.618;5.130;2023-02-01T03:57:33;14.77;;;10.85;;
48727;SDS011;34527;45.618;5.130;2023-02-01T04:00:04;16.50;;;11.10;;
48727;SDS011;34527;45.618;5.130;2023-02-01T04:02:44;17.58;;;10.88;;
48727;SDS011;34527;45.618;5.130;2023-02-01T04:05:09;17.17;;;12.25;;
48727;SDS011;34527;45.618;5.130;2023-02-01T04:07:35;17.35;;;11.00;;
48727;SDS011;34527;45.618;5.130;2023-02-01T04:10:01;19.08;;;11.85;;
48727;SDS011;34527;45.618;5.130;2023-02-01T04:12:28;16.35;;;11.85;;
48727;SDS011;34527;45.618;5.130;2023-02-01T04:14:54;15.52;;;11.57;;
48727;SDS011;34527;45.618;5.130;2023-02-01T04:17:19;18.15;;;12.02;;
48727;SDS011;34527;45.618;5.130;2023-02-01T04:19:45;21.45;;;11.93;;
48727;SDS011;34527;45.618;5.130;2023-02-01T04:22:11;18.98;;;12.57;;
48727;SDS011;34527;45.618;5.130;2023-02-01T04:24:37;17.65;;;11.82;;
48727;SDS011;34527;45.618;5.130;2023-02-01T04:27:03;33.22;;;18.27;;
48727;SDS011;34527;45.618;5.130;2023-02-01T04:29:29;29.08;;;14.82;;
48727;SDS011;34527;45.618;5.130;2023-02-01T04:31:54;22.60;;;14.52;;
48727;SDS011;34527;45.618;5.130;2023-02-01T04:34:20;44.67;;;19.98;;
48727;SDS011;34527;45.618;5.130;2023-02-01T04:36:47;34.00;;;18.77;;
48727;SDS011;34527;45.618;5.130;2023-02-01T04:39:13;26.40;;;16.25;;
48727;SDS011;34527;45.618;5.130;2023-02-01T04:41:39;23.63;;;14.20;;
48727;SDS011;34527;45.618;5.130;2023-02-01T04:44:04;23.80;;;12.93;;
48727;SDS011;34527;45.618;5.130;2023-02-01T04:46:30;20.30;;;12.48;;
48727;SDS011;34527;45.618;5.130;2023-02-01T04:48:56;22.55;;;13.40;;
48727;SDS011;34527;45.618;5.130;2023-02-01T04:51:22;20.23;;;13.23;;
48727;SDS011;34527;45.618;5.130;2023-02-01T04:53:47;17.98;;;13.02;;
48727;SDS011;34527;45.618;5.130;2023-02-01T04:56:13;17.83;;;12.52;;
48727;SDS011;34527;45.618;5.130;2023-02-01T04:58:38;19.65;;;12.52;;
48727;SDS011;34527;45.618;5.130;2023-02-01T05:01:05;16.60;;;12.13;;
48727;SDS011;34527;45.618;5.130;2023-02-01T05:03:31;16.50;;;12.27;;
48727;SDS011;34527;45.618;5.130;2023-02-01T05:05:57;17.67;;;12.43;;
48727;SDS011;34527;45.618;5.130;2023-02-01T05:08:24;18.92;;;12.68;;
48727;SDS011;34527;45.618;5.130;2023-02-01T05:10:50;19.25;;;13.00;;
48727;SDS011;34527;45.618;5.130;2023-02-01T05:13:16;19.30;;;12.57;;
48727;SDS011;34527;45.618;5.130;2023-02-01T05:16:00;21.50;;;13.30;;
48727;SDS011;34527;45.618;5.130;2023-02-01T05:18:26;18.73;;;12.65;;
48727;SDS011;34527;45.618;5.130;2023-02-01T05:20:51;20.83;;;12.77;;
48727;SDS011;34527;45.618;5.130;2023-02-01T05:23:17;23.23;;;12.80;;
48727;SDS011;34527;45.618;5.130;2023-02-01T05:25:42;18.63;;;12.95;;
48727;SDS011;34527;45.618;5.130;2023-02-01T05:28:08;20.55;;;12.10;;
48727;SDS011;34527;45.618;5.130;2023-02-01T05:30:34;17.23;;;12.13;;
48727;SDS011;34527;45.618;5.130;2023-02-01T05:33:00;17.98;;;11.27;;
48727;SDS011;34527;45.618;5.130;2023-02-01T05:35:26;16.98;;;12.65;;
48727;SDS011;34527;45.618;5.130;2023-02-01T05:37:52;24.13;;;13.85;;
48727;SDS011;34527;45.618;5.130;2023-02-01T05:40:17;22.83;;;14.95;;
48727;SDS011;34527;45.618;5.130;2023-02-01T05:42:43;23.00;;;14.32;;
48727;SDS011;34527;45.618;5.130;2023-02-01T05:45:09;19.00;;;12.55;;
48727;SDS011;34527;45.618;5.130;2023-02-01T05:47:35;17.50;;;12.73;;
48727;SDS011;34527;45.618;5.130;2023-02-01T05:50:00;17.80;;;12.15;;
48727;SDS011;34527;45.618;5.130;2023-02-01T05:52:26;18.42;;;12.50;;
48727;SDS011;34527;45.618;5.130;2023-02-01T05:54:52;18.65;;;12.82;;
48727;SDS011;34527;45.618;5.130;2023-02-01T05:57:18;18.73;;;13.38;;
48727;SDS011;34527;45.618;5.130;2023-02-01T05:59:43;20.40;;;13.23;;
48727;SDS011;34527;45.618;5.130;2023-02-01T06:02:13;19.05;;;12.80;;
48727;SDS011;34527;45.618;5.130;2023-02-01T06:04:40;20.00;;;13.80;;
48727;SDS011;34527;45.618;5.130;2023-02-01T06:07:06;22.63;;;14.20;;
48727;SDS011;34527;45.618;5.130;2023-02-01T06:09:34;20.20;;;13.27;;
48727;SDS011;34527;45.618;5.130;2023-02-01T06:12:00;18.30;;;12.63;;
48727;SDS011;34527;45.618;5.130;2023-02-01T06:14:27;23.10;;;14.38;;
48727;SDS011;34527;45.618;5.130;2023-02-01T06:16:53;23.52;;;14.60;;
48727;SDS011;34527;45.618;5.130;2023-02-01T06:19:21;21.58;;;13.68;;
48727;SDS011;34527;45.618;5.130;2023-02-01T06:21:47;20.25;;;13.32;;
48727;SDS011;34527;45.618;5.130;2023-02-01T06:24:13;19.67;;;14.32;;
48727;SDS011;34527;45.618;5.130;2023-02-01T06:26:39;19.75;;;14.38;;
48727;SDS011;34527;45.618;5.130;2023-02-01T06:29:09;20.38;;;14.60;;
48727;SDS011;34527;45.618;5.130;2023-02-01T06:31:35;23.42;;;15.57;;
48727;SDS011;34527;45.618;5.130;2023-02-01T06:34:01;20.30;;;13.38;;
48727;SDS011;34527;45.618;5.130;2023-02-01T06:36:28;19.10;;;12.85;;
48727;SDS011;34527;45.618;5.130;2023-02-01T06:38:54;19.67;;;14.10;;
48727;SDS011;34527;45.618;5.130;2023-02-01T06:41:21;17.80;;;12.75;;
48727;SDS011;34527;45.618;5.130;2023-02-01T06:43:47;19.40;;;12.77;;
48727;SDS011;34527;45.618;5.130;2023-02-01T06:46:13;20.88;;;14.18;;
48727;SDS011;34527;45.618;5.130;2023-02-01T06:48:39;22.30;;;13.85;;
48727;SDS011;34527;45.618;5.130;2023-02-01T06:51:05;21.70;;;15.05;;
48727;SDS011;34527;45.618;5.130;2023-02-01T06:53:31;27.80;;;17.85;;
48727;SDS011;34527;45.618;5.130;2023-02-01T06:56:02;30.02;;;21.85;;
48727;SDS011;34527;45.618;5.130;2023-02-01T06:58:32;27.95;;;22.38;;
48727;SDS011;34527;45.618;5.130;2023-02-01T07:00:58;26.35;;;19.35;;
48727;SDS011;34527;45.618;5.130;2023-02-01T07:03:30;25.80;;;17.67;;
48727;SDS011;34527;45.618;5.130;2023-02-01T07:05:56;27.25;;;20.23;;
48727;SDS011;34527;45.618;5.130;2023-02-01T07:08:24;31.77;;;21.48;;
48727;SDS011;34527;45.618;5.130;2023-02-01T07:10:50;33.35;;;23.52;;
48727;SDS011;34527;45.618;5.130;2023-02-01T07:13:15;28.98;;;19.58;;
48727;SDS011;34527;45.618;5.130;2023-02-01T07:15:41;31.45;;;21.55;;
48727;SDS011;34527;45.618;5.130;2023-02-01T07:18:06;30.02;;;22.05;;
48727;SDS011;34527;45.618;5.130;2023-02-01T07:20:32;27.15;;;17.00;;
48727;SDS011;34527;45.618;5.130;2023-02-01T07:22:57;29.00;;;18.42;;
48727;SDS011;34527;45.618;5.130;2023-02-01T07:25:23;26.42;;;17.50;;
48727;SDS011;34527;45.618;5.130;2023-02-01T07:27:49;24.50;;;16.67;;
48727;SDS011;34527;45.618;5.130;2023-02-01T07:30:15;23.90;;;15.48;;
48727;SDS011;34527;45.618;5.130;2023-02-01T07:32:40;22.30;;;16.27;;
48727;SDS011;34527;45.618;5.130;2023-02-01T07:35:06;22.70;;;15.20;;
48727;SDS011;34527;45.618;5.130;2023-02-01T07:37:32;25.77;;;15.35;;
48727;SDS011;34527;45.618;5.130;2023-02-01T07:39:58;24.38;;;15.93;;
48727;SDS011;34527;45.618;5.130;2023-02-01T07:42:23;25.50;;;16.13;;
48727;SDS011;34527;45.618;5.130;2023-02-01T07:44:49;29.35;;;16.63;;
48727;SDS011;34527;45.618;5.130;2023-02-01T07:47:15;25.27;;;15.80;;
48727;SDS011;34527;45.618;5.130;2023-02-01T07:49:40;23.83;;;16.33;;
48727;SDS011;34527;45.618;5.130;2023-02-01T07:52:06;23.13;;;16.23;;
48727;SDS011;34527;45.618;5.130;2023-02-01T07:54:31;25.42;;;16.20;;
48727;SDS011;34527;45.618;5.130;2023-02-01T07:56:57;27.95;;;16.38;;
48727;SDS011;34527;45.618;5.130;2023-02-01T07:59:22;26.20;;;17.50;;
48727;SDS011;34527;45.618;5.130;2023-02-01T08:01:48;29.00;;;16.58;;
48727;SDS011;34527;45.618;5.130;2023-02-01T08:04:14;26.92;;;16.92;;
48727;SDS011;34527;45.618;5.130;2023-02-01T08:06:39;25.48;;;18.13;;
48727;SDS011;34527;45.618;5.130;2023-02-01T08:09:05;28.02;;;20.08;;
48727;SDS011;34527;45.618;5.130;2023-02-01T08:11:35;32.25;;;21.35;;
48727;SDS011;34527;45.618;5.130;2023-02-01T08:14:04;30.65;;;19.73;;
48727;SDS011;34527;45.618;5.130;2023-02-01T08:16:30;31.90;;;18.60;;
48727;SDS011;34527;45.618;5.130;2023-02-01T08:18:56;61.78;;;38.55;;
48727;SDS011;34527;45.618;5.130;2023-02-01T08:21:23;49.22;;;32.13;;
48727;SDS011;34527;45.618;5.130;2023-02-01T08:23:51;46.10;;;27.23;;
48727;SDS011;34527;45.618;5.130;2023-02-01T08:26:21;39.17;;;25.20;;
48727;SDS011;34527;45.618;5.130;2023-02-01T08:28:51;39.35;;;24.55;;
48727;SDS011;34527;45.618;5.130;2023-02-01T08:31:19;35.20;;;23.60;;
48727;SDS011;34527;45.618;5.130;2023-02-01T08:33:50;35.42;;;23.75;;
48727;SDS011;34527;45.618;5.130;2023-02-01T08:36:18;37.08;;;24.10;;
48727;SDS011;34527;45.618;5.130;2023-02-01T08:38:44;35.80;;;23.27;;
48727;SDS011;34527;45.618;5.130;2023-02-01T08:41:11;34.22;;;22.23;;
48727;SDS011;34527;45.618;5.130;2023-02-01T08:43:38;33.13;;;22.33;;
48727;SDS011;34527;45.618;5.130;2023-02-01T08:46:05;37.17;;;27.65;;
48727;SDS011;34527;45.618;5.130;2023-02-01T08:48:32;34.10;;;26.08;;
48727;SDS011;34527;45.618;5.130;2023-02-01T08:51:03;35.88;;;24.48;;
48727;SDS011;34527;45.618;5.130;2023-02-01T08:53:30;36.13;;;24.25;;
48727;SDS011;34527;45.618;5.130;2023-02-01T08:55:56;26.73;;;18.90;;
48727;SDS011;34527;45.618;5.130;2023-02-01T08:58:21;26.73;;;18.50;;
48727;SDS011;34527;45.618;5.130;2023-02-01T09:00:50;28.17;;;17.23;;
48727;SDS011;34527;45.618;5.130;2023-02-01T09:03:16;26.33;;;17.25;;
48727;SDS011;34527;45.618;5.130;2023-02-01T09:05:42;31.17;;;19.95;;
48727;SDS011;34527;45.618;5.130;2023-02-01T09:08:08;25.63;;;16.92;;
48727;SDS011;34527;45.618;5.130;2023-02-01T09:10:34;24.05;;;15.43;;
48727;SDS011;34527;45.618;5.130;2023-02-01T09:13:01;23.40;;;14.43;;
48727;SDS011;34527;45.618;5.130;2023-02-01T09:15:26;18.90;;;14.57;;
48727;SDS011;34527;45.618;5.130;2023-02-01T09:17:52;20.75;;;14.48;;
48727;SDS011;34527;45.618;5.130;2023-02-01T09:20:17;23.88;;;15.82;;
48727;SDS011;34527;45.618;5.130;2023-02-01T09:22:45;22.63;;;14.65;;
48727;SDS011;34527;45.618;5.130;2023-02-01T09:25:10;20.83;;;13.65;;
48727;SDS011;34527;45.618;5.130;2023-02-01T09:27:36;21.40;;;15.65;;
48727;SDS011;34527;45.618;5.130;2023-02-01T09:30:02;27.42;;;15.88;;
48727;SDS011;34527;45.618;5.130;2023-02-01T09:32:29;19.83;;;14.68;;
48727;SDS011;34527;45.618;5.130;2023-02-01T09:34:55;24.95;;;15.95;;
48727;SDS011;34527;45.618;5.130;2023-02-01T09:37:20;20.92;;;15.27;;
48727;SDS011;34527;45.618;5.130;2023-02-01T09:39:46;25.30;;;16.00;;
48727;SDS011;34527;45.618;5.130;2023-02-01T09:45:24;20.77;;;14.85;;
48727;SDS011;34527;45.618;5.130;2023-02-01T09:48:00;20.92;;;14.48;;
48727;SDS011;34527;45.618;5.130;2023-02-01T09:55:45;20.65;;;12.05;;
48727;SDS011;34527;45.618;5.130;2023-02-01T09:58:17;20.38;;;13.20;;
48727;SDS011;34527;45.618;5.130;2023-02-01T10:00:51;23.50;;;13.23;;
48727;SDS011;34527;45.618;5.130;2023-02-01T10:03:19;19.85;;;13.00;;
48727;SDS011;34527;45.618;5.130;2023-02-01T10:06:09;18.58;;;11.93;;
48727;SDS011;34527;45.618;5.130;2023-02-01T10:11:32;18.15;;;10.18;;
48727;SDS011;34527;45.618;5.130;2023-02-01T10:20:05;12.65;;;8.73;;
48727;SDS011;34527;45.618;5.130;2023-02-01T10:22:43;12.98;;;8.27;;
48727;SDS011;34527;45.618;5.130;2023-02-01T10:25:36;18.40;;;9.02;;
48727;SDS011;34527;45.618;5.130;2023-02-01T10:28:09;13.10;;;8.65;;
48727;SDS011;34527;45.618;5.130;2023-02-01T10:30:41;16.52;;;9.98;;
48727;SDS011;34527;45.618;5.130;2023-02-01T10:33:17;16.17;;;9.30;;
48727;SDS011;34527;45.618;5.130;2023-02-01T10:36:39;12.30;;;9.13;;
48727;SDS011;34527;45.618;5.130;2023-02-01T10:38:53;16.85;;;10.93;;
48727;SDS011;34527;45.618;5.130;2023-02-01T10:41:22;15.73;;;9.98;;
48727;SDS011;34527;45.618;5.130;2023-02-01T10:43:51;18.35;;;9.23;;
48727;SDS011;34527;45.618;5.130;2023-02-01T10:46:20;16.35;;;9.13;;
48727;SDS011;34527;45.618;5.130;2023-02-01T10:48:48;17.52;;;10.77;;
48727;SDS011;34527;45.618;5.130;2023-02-01T10:51:26;16.65;;;10.48;;
48727;SDS011;34527;45.618;5.130;2023-02-01T10:54:13;12.80;;;8.90;;
48727;SDS011;34527;45.618;5.130;2023-02-01T10:56:43;16.10;;;10.07;;
48727;SDS011;34527;45.618;5.130;2023-02-01T10:59:21;14.82;;;10.02;;
48727;SDS011;34527;45.618;5.130;2023-02-01T11:01:50;13.75;;;8.35;;
48727;SDS011;34527;45.618;5.130;2023-02-01T11:04:23;16.08;;;8.40;;
48727;SDS011;34527;45.618;5.130;2023-02-01T11:06:52;11.63;;;8.73;;
48727;SDS011;34527;45.618;5.130;2023-02-01T11:09:32;11.25;;;7.80;;
48727;SDS011;34527;45.618;5.130;2023-02-01T11:12:04;14.60;;;8.90;;
48727;SDS011;34527;45.618;5.130;2023-02-01T11:14:40;11.18;;;6.80;;
48727;SDS011;34527;45.618;5.130;2023-02-01T11:19:44;13.13;;;8.63;;
48727;SDS011;34527;45.618;5.130;2023-02-01T11:22:10;17.17;;;9.40;;
48727;SDS011;34527;45.618;5.130;2023-02-01T11:24:38;15.27;;;9.00;;
48727;SDS011;34527;45.618;5.130;2023-02-01T11:27:05;10.75;;;7.47;;
48727;SDS011;34527;45.618;5.130;2023-02-01T11:32:08;15.20;;;6.47;;
48727;SDS011;34527;45.618;5.130;2023-02-01T11:34:37;10.10;;;6.32;;
48727;SDS011;34527;45.618;5.130;2023-02-01T11:37:03;12.68;;;6.95;;
48727;SDS011;34527;45.618;5.130;2023-02-01T11:39:31;11.10;;;6.95;;
48727;SDS011;34527;45.618;5.130;2023-02-01T11:42:04;10.23;;;6.60;;
48727;SDS011;34527;45.618;5.130;2023-02-01T11:44:41;11.07;;;6.13;;
48727;SDS011;34527;45.618;5.130;2023-02-01T11:49:43;14.15;;;6.47;;
48727;SDS011;34527;45.618;5.130;2023-02-01T11:52:11;13.07;;;7.05;;
48727;SDS011;34527;45.618;5.130;2023-02-01T11:57:27;16.10;;;7.67;;
48727;SDS011;34527;45.618;5.130;2023-02-01T12:00:16;13.18;;;6.32;;
48727;SDS011;34527;45.618;5.130;2023-02-01T12:08:26;13.13;;;7.00;;
48727;SDS011;34527;45.618;5.130;2023-02-01T12:11:02;14.02;;;7.65;;
48727;SDS011;34527;45.618;5.130;2023-02-01T12:25:07;10.95;;;7.03;;
48727;SDS011;34527;45.618;5.130;2023-02-01T12:42:16;10.18;;;7.30;;
48727;SDS011;34527;45.618;5.130;2023-02-01T12:44:59;12.05;;;7.15;;
48727;SDS011;34527;45.618;5.130;2023-02-01T12:50:18;10.60;;;6.10;;
48727;SDS011;34527;45.618;5.130;2023-02-01T12:52:52;8.43;;;5.97;;
48727;SDS011;34527;45.618;5.130;2023-02-01T12:55:33;10.23;;;6.32;;
48727;SDS011;34527;45.618;5.130;2023-02-01T12:58:24;10.98;;;6.75;;
48727;SDS011;34527;45.618;5.130;2023-02-01T13:00:55;10.75;;;6.45;;
48727;SDS011;34527;45.618;5.130;2023-02-01T13:06:17;11.13;;;6.65;;
48727;SDS011;34527;45.618;5.130;2023-02-01T13:11:45;11.57;;;6.93;;
48727;SDS011;34527;45.618;5.130;2023-02-01T13:17:22;7.72;;;5.22;;
48727;SDS011;34527;45.618;5.130;2023-02-01T13:20:02;13.63;;;5.85;;
48727;SDS011;34527;45.618;5.130;2023-02-01T13:22:33;8.68;;;4.95;;
48727;SDS011;34527;45.618;5.130;2023-02-01T13:27:54;6.95;;;4.55;;
48727;SDS011;34527;45.618;5.130;2023-02-01T13:41:41;4.07;;;3.47;;
48727;SDS011;34527;45.618;5.130;2023-02-01T13:44:28;5.45;;;3.45;;
48727;SDS011;34527;45.618;5.130;2023-02-01T13:47:02;5.32;;;3.80;;
48727;SDS011;34527;45.618;5.130;2023-02-01T13:49:37;6.40;;;3.90;;
48727;SDS011;34527;45.618;5.130;2023-02-01T13:52:04;4.93;;;3.72;;
48727;SDS011;34527;45.618;5.130;2023-02-01T13:54:32;5.55;;;3.50;;
48727;SDS011;34527;45.618;5.130;2023-02-01T13:57:02;6.95;;;4.07;;
48727;SDS011;34527;45.618;5.130;2023-02-01T13:59:36;7.47;;;3.88;;
48727;SDS011;34527;45.618;5.130;2023-02-01T14:05:09;7.00;;;3.75;;
48727;SDS011;34527;45.618;5.130;2023-02-01T14:07:36;8.55;;;4.60;;
48727;SDS011;34527;45.618;5.130;2023-02-01T14:13:32;5.53;;;3.70;;
48727;SDS011;34527;45.618;5.130;2023-02-01T14:21:13;9.15;;;4.80;;
48727;SDS011;34527;45.618;5.130;2023-02-01T14:34:29;6.47;;;4.10;;
48727;SDS011;34527;45.618;5.130;2023-02-01T14:37:29;7.13;;;4.53;;
48727;SDS011;34527;45.618;5.130;2023-02-01T14:40:01;9.20;;;4.97;;
48727;SDS011;34527;45.618;5.130;2023-02-01T14:45:51;9.90;;;4.78;;
48727;SDS011;34527;45.618;5.130;2023-02-01T14:55:41;7.95;;;4.60;;
48727;SDS011;34527;45.618;5.130;2023-02-01T14:58:32;8.27;;;4.97;;
48727;SDS011;34527;45.618;5.130;2023-02-01T15:07:12;7.97;;;4.97;;
48727;SDS011;34527;45.618;5.130;2023-02-01T15:14:39;6.18;;;4.40;;
48727;SDS011;34527;45.618;5.130;2023-02-01T15:17:21;9.35;;;4.78;;
48727;SDS011;34527;45.618;5.130;2023-02-01T15:22:52;6.47;;;4.25;;
48727;SDS011;34527;45.618;5.130;2023-02-01T15:25:22;8.15;;;4.35;;
48727;SDS011;34527;45.618;5.130;2023-02-01T15:27:56;5.82;;;4.45;;
48727;SDS011;34527;45.618;5.130;2023-02-01T15:30:23;6.88;;;4.32;;
48727;SDS011;34527;45.618;5.130;2023-02-01T15:35:51;8.10;;;4.70;;
48727;SDS011;34527;45.618;5.130;2023-02-01T15:38:19;6.88;;;4.70;;
48727;SDS011;34527;45.618;5.130;2023-02-01T15:43:37;9.50;;;5.38;;
48727;SDS011;34527;45.618;5.130;2023-02-01T15:46:10;9.23;;;5.28;;
48727;SDS011;34527;45.618;5.130;2023-02-01T15:48:47;7.30;;;5.22;;
48727;SDS011;34527;45.618;5.130;2023-02-01T15:51:20;7.53;;;5.07;;
48727;SDS011;34527;45.618;5.130;2023-02-01T15:56:27;9.85;;;5.38;;
48727;SDS011;34527;45.618;5.130;2023-02-01T15:58:58;7.72;;;5.45;;
48727;SDS011;34527;45.618;5.130;2023-02-01T16:01:26;9.43;;;5.55;;
48727;SDS011;34527;45.618;5.130;2023-02-01T16:04:02;12.65;;;5.90;;
48727;SDS011;34527;45.618;5.130;2023-02-01T16:06:31;7.97;;;5.05;;
48727;SDS011;34527;45.618;5.130;2023-02-01T16:09:00;7.75;;;5.00;;
48727;SDS011;34527;45.618;5.130;2023-02-01T16:11:39;9.55;;;5.60;;
48727;SDS011;34527;45.618;5.130;2023-02-01T16:14:12;11.68;;;5.60;;
48727;SDS011;34527;45.618;5.130;2023-02-01T16:16:38;8.32;;;5.03;;
48727;SDS011;34527;45.618;5.130;2023-02-01T16:19:04;8.68;;;5.05;;
48727;SDS011;34527;45.618;5.130;2023-02-01T16:21:29;6.97;;;4.20;;
48727;SDS011;34527;45.618;5.130;2023-02-01T16:23:55;7.32;;;4.45;;
48727;SDS011;34527;45.618;5.130;2023-02-01T16:26:20;6.43;;;4.55;;
48727;SDS011;34527;45.618;5.130;2023-02-01T16:28:46;4.80;;;4.18;;
48727;SDS011;34527;45.618;5.130;2023-02-01T16:31:16;7.82;;;4.60;;
48727;SDS011;34527;45.618;5.130;2023-02-01T16:33:49;7.15;;;4.03;;
48727;SDS011;34527;45.618;5.130;2023-02-01T16:36:15;7.28;;;4.60;;
48727;SDS011;34527;45.618;5.130;2023-02-01T16:38:42;7.10;;;3.83;;
48727;SDS011;34527;45.618;5.130;2023-02-01T16:41:10;5.60;;;4.22;;
48727;SDS011;34527;45.618;5.130;2023-02-01T16:43:38;7.15;;;4.00;;
48727;SDS011;34527;45.618;5.130;2023-02-01T16:46:04;5.63;;;3.70;;
48727;SDS011;34527;45.618;5.130;2023-02-01T16:48:35;6.72;;;4.25;;
48727;SDS011;34527;45.618;5.130;2023-02-01T16:51:03;5.90;;;3.38;;
48727;SDS011;34527;45.618;5.130;2023-02-01T16:53:33;6.57;;;3.60;;
48727;SDS011;34527;45.618;5.130;2023-02-01T16:55:59;6.38;;;3.25;;
48727;SDS011;34527;45.618;5.130;2023-02-01T16:58:25;6.32;;;3.60;;
48727;SDS011;34527;45.618;5.130;2023-02-01T17:00:52;6.95;;;3.50;;
48727;SDS011;34527;45.618;5.130;2023-02-01T17:03:18;7.97;;;3.60;;
48727;SDS011;34527;45.618;5.130;2023-02-01T17:05:47;7.38;;;3.65;;
48727;SDS011;34527;45.618;5.130;2023-02-01T17:08:33;8.40;;;3.42;;
48727;SDS011;34527;45.618;5.130;2023-02-01T17:11:02;7.97;;;3.55;;
48727;SDS011;34527;45.618;5.130;2023-02-01T17:13:28;6.63;;;3.88;;
48727;SDS011;34527;45.618;5.130;2023-02-01T17:15:56;5.97;;;3.85;;
48727;SDS011;34527;45.618;5.130;2023-02-01T17:18:24;9.43;;;4.07;;
48727;SDS011;34527;45.618;5.130;2023-02-01T17:20:55;6.65;;;3.88;;
48727;SDS011;34527;45.618;5.130;2023-02-01T17:23:22;6.10;;;4.22;;
48727;SDS011;34527;45.618;5.130;2023-02-01T17:25:48;7.82;;;4.38;;
48727;SDS011;34527;45.618;5.130;2023-02-01T17:28:13;8.32;;;4.57;;
48727;SDS011;34527;45.618;5.130;2023-02-01T17:30:39;9.57;;;4.00;;
48727;SDS011;34527;45.618;5.130;2023-02-01T17:33:09;7.38;;;4.57;;
48727;SDS011;34527;45.618;5.130;2023-02-01T17:35:48;10.95;;;4.63;;